Time;durP1;ratioP1;P1;durP2;ratioP2;P2;SDS_P1;SDS_P2;PMS_P1;PMS_P2;Temp;Humidity;BMP_temperature;BMP_pressure;BME280_temperature;BME280_humidity;BME280_pressure;Samples;Min_cycle;Max_cycle;Signal;HPM_P1;HPM_P2
2022/10/04 00:01:30;;;;;;;12.25;4.95;;;14.80;99.90;;;;;;5117979;28;20052;-78
2022/10/04 00:04:08;;;;;;;8.30;4.32;;;14.80;99.90;;;;;;5119350;28;20054;-77
2022/10/04 00:06:36;;;;;;;9.30;4.90;;;14.80;99.90;;;;;;5119289;28;20085;-77
2022/10/04 00:09:13;;;;;;;11.13;4.53;;;14.70;99.90;;;;;;5117622;28;20039;-78
2022/10/04 00:11:43;;;;;;;14.40;5.35;;;14.70;99.90;;;;;;5119235;28;20063;-78
2022/10/04 00:14:19;;;;;;;13.50;5.45;;;14.70;99.90;;;;;;5117822;28;20044;-78
2022/10/04 00:16:46;;;;;;;;;;;14.70;99.90;;;;;;5119374;28;20047;-78
2022/10/04 00:19:14;;;;;;;10.43;4.95;;;14.70;99.90;;;;;;5152201;27;20059;-79
2022/10/04 00:21:55;;;;;;;9.27;4.72;;;14.70;99.90;;;;;;5135047;27;20067;-78
2022/10/04 00:24:26;;;;;;;10.90;4.93;;;14.70;99.90;;;;;;5117841;28;20039;-78
2022/10/04 00:26:52;;;;;;;11.82;5.30;;;14.60;99.90;;;;;;5117545;28;20047;-78
2022/10/04 00:29:34;;;;;;;17.85;6.18;;;14.60;99.90;;;;;;5117776;28;20036;-78
2022/10/04 00:32:09;;;;;;;13.48;4.97;;;14.60;99.90;;;;;;5100709;28;20047;-78
2022/10/04 00:34:34;;;;;;;12.65;5.18;;;14.60;99.90;;;;;;5117357;28;20050;-78
2022/10/04 00:37:01;;;;;;;14.23;5.13;;;14.60;99.90;;;;;;5117281;28;20039;-78
2022/10/04 00:39:33;;;;;;;12.02;4.85;;;14.50;99.90;;;;;;5117056;28;20035;-78
2022/10/04 00:42:10;;;;;;;12.18;5.03;;;14.60;99.90;;;;;;5117202;28;20051;-78
2022/10/04 00:44:40;;;;;;;14.77;5.70;;;14.60;99.90;;;;;;5117245;28;20041;-78
2022/10/04 00:47:35;;;;;;;11.45;5.05;;;14.60;99.90;;;;;;5117379;28;20312;-78
2022/10/04 00:50:18;;;;;;;10.18;4.85;;;14.70;99.90;;;;;;5116965;28;20048;-78
2022/10/04 00:52:50;;;;;;;10.88;5.40;;;14.60;99.90;;;;;;5118417;28;20042;-77
2022/10/04 00:55:43;;;;;;;13.38;5.90;;;14.70;99.90;;;;;;5118312;28;20031;-78
2022/10/04 00:58:23;;;;;;;13.63;5.43;;;14.60;99.90;;;;;;5110714;28;20051;-78
2022/10/04 01:00:53;;;;;;;20.42;6.93;;;14.60;99.90;;;;;;5117042;28;20316;-78
2022/10/04 01:03:27;;;;;;;12.25;5.55;;;14.70;99.90;;;;;;5116828;28;20035;-78
2022/10/04 01:05:58;;;;;;;15.48;6.03;;;14.70;99.90;;;;;;5118164;28;20028;-78
2022/10/04 01:08:49;;;;;;;16.00;6.82;;;14.70;99.90;;;;;;5118091;28;20031;-78
2022/10/04 01:11:29;;;;;;;14.07;6.63;;;14.60;99.90;;;;;;5109628;28;20058;-78
2022/10/04 01:14:00;;;;;;;16.33;6.55;;;14.70;99.90;;;;;;5118031;28;20277;-78
2022/10/04 01:16:33;;;;;;;14.15;7.57;;;14.60;99.90;;;;;;5133684;27;20041;-78
2022/10/04 01:19:20;;;;;;;21.02;7.97;;;14.70;99.90;;;;;;5117905;28;20035;-78
2022/10/04 01:21:46;;;;;;;15.57;6.25;;;14.70;99.90;;;;;;5116537;28;20319;-78
2022/10/04 01:24:12;;;;;;;16.25;8.10;;;14.60;99.90;;;;;;5116472;28;20032;-78
2022/10/04 01:26:41;;;;;;;20.83;8.75;;;14.60;99.90;;;;;;5116426;28;20103;-78
2022/10/04 01:29:09;;;;;;;19.42;7.93;;;14.60;99.90;;;;;;5117705;28;20070;-78
2022/10/04 01:31:38;;;;;;;17.42;7.88;;;14.70;99.90;;;;;;5133782;27;20039;-78
2022/10/04 01:34:05;;;;;;;17.33;6.95;;;14.60;99.90;;;;;;5133449;27;20044;-78
2022/10/04 01:36:32;;;;;;;21.20;7.55;;;14.60;99.90;;;;;;5116547;28;20128;-78
2022/10/04 01:38:58;;;;;;;16.90;7.25;;;14.60;99.90;;;;;;5116922;28;20435;-79
2022/10/04 01:41:28;;;;;;;20.67;8.27;;;14.60;99.90;;;;;;5099032;28;20059;-78
2022/10/04 01:43:59;;;;;;;16.95;7.63;;;14.60;99.90;;;;;;5116443;28;20043;-78
2022/10/04 01:46:31;;;;;;;14.30;7.93;;;14.60;99.90;;;;;;5150532;27;20092;-78
2022/10/04 01:49:01;;;;;;;14.07;7.07;;;14.70;99.90;;;;;;5117157;28;20032;-78
2022/10/04 01:51:34;;;;;;;18.48;7.28;;;14.70;99.90;;;;;;5116236;28;20396;-78
2022/10/04 01:54:08;;;;;;;13.43;7.00;;;14.70;99.90;;;;;;5150459;27;20043;-78
2022/10/04 01:57:00;;;;;;;18.20;7.63;;;14.70;99.90;;;;;;5117181;28;20061;-78
2022/10/04 01:59:37;;;;;;;17.45;7.90;;;14.70;99.90;;;;;;5108231;28;20297;-77
2022/10/04 02:02:14;;;;;;;13.23;7.35;;;14.70;99.90;;;;;;5115961;28;20040;-78
2022/10/04 02:04:41;;;;;;;20.40;8.25;;;14.60;99.90;;;;;;5117335;28;20028;-78
2022/10/04 02:07:14;;;;;;;16.73;8.10;;;14.50;99.90;;;;;;5133061;28;20428;-78
2022/10/04 02:09:44;;;;;;;22.20;9.30;;;14.50;99.90;;;;;;5116928;28;20364;-78
2022/10/04 02:12:18;;;;;;;19.17;9.10;;;14.50;99.90;;;;;;5117557;28;20335;-78
2022/10/04 02:14:54;;;;;;;30.13;10.70;;;14.60;99.90;;;;;;5117161;28;20293;-79
2022/10/04 02:17:24;;;;;;;22.98;9.50;;;14.60;99.90;;;;;;5117011;28;20407;-78
2022/10/04 02:19:51;;;;;;;14.68;7.80;;;14.60;99.90;;;;;;5117088;28;20032;-78
2022/10/04 02:22:18;;;;;;;18.23;8.65;;;14.60;99.90;;;;;;5098827;28;20088;-77
2022/10/04 02:24:47;;;;;;;20.58;9.32;;;14.50;99.90;;;;;;5116088;28;20365;-78
2022/10/04 02:27:13;;;;;;;13.25;7.95;;;14.50;99.90;;;;;;5117057;28;20028;-78
2022/10/04 02:29:39;;;;;;;24.05;10.07;;;14.40;99.90;;;;;;5150200;27;20074;-78
2022/10/04 02:34:53;;;;;;;21.17;9.18;;;14.40;99.90;;;;;;5115743;28;20078;-77
2022/10/04 02:37:22;;;;;;;18.05;8.43;;;14.30;99.90;;;;;;5116688;28;20071;-78
2022/10/04 02:40:06;;;;;;;14.65;7.40;;;14.20;99.90;;;;;;5116165;28;20048;-78
2022/10/04 02:42:42;;;;;;;17.75;7.90;;;14.20;99.90;;;;;;5115598;28;20044;-78
2022/10/04 02:45:40;;;;;;;15.10;8.02;;;14.10;99.90;;;;;;5115684;28;20073;-78
2022/10/04 02:48:33;;;;;;;17.52;7.45;;;14.00;99.90;;;;;;5119200;28;20039;-78
2022/10/04 02:51:24;;;;;;;19.90;8.15;;;13.90;99.90;;;;;;5098698;28;20038;-78
2022/10/04 02:54:10;;;;;;;15.55;6.57;;;13.90;99.90;;;;;;5107374;28;20424;-78
2022/10/04 02:56:36;;;;;;;12.70;7.30;;;13.90;99.90;;;;;;5116892;28;20028;-78
2022/10/04 02:59:04;;;;;;;16.90;7.50;;;13.80;99.90;;;;;;5149792;27;20545;-78
2022/10/04 03:01:42;;;;;;;16.02;6.70;;;13.80;99.90;;;;;;5135268;27;20038;-78
2022/10/04 03:04:12;;;;;;;12.63;6.78;;;13.80;99.90;;;;;;5136379;27;20035;-78
2022/10/04 03:06:38;;;;;;;16.83;7.22;;;13.70;99.90;;;;;;5119390;28;20051;-78
2022/10/04 03:09:05;;;;;;;14.07;6.47;;;13.70;99.90;;;;;;5119999;28;20028;-78
2022/10/04 03:11:36;;;;;;;16.85;6.80;;;13.70;99.90;;;;;;5119357;28;20103;-78
2022/10/04 03:14:06;;;;;;;20.58;8.60;;;13.80;99.90;;;;;;5136070;27;20043;-79
2022/10/04 03:16:36;;;;;;;15.43;6.65;;;13.80;99.90;;;;;;5119005;28;20044;-78
2022/10/04 03:19:04;;;;;;;16.77;6.63;;;13.90;99.90;;;;;;5119883;28;20455;-78
2022/10/04 03:21:31;;;;;;;12.65;6.55;;;13.80;99.90;;;;;;5118920;28;20424;-78
2022/10/04 03:23:59;;;;;;;16.35;7.43;;;13.80;99.90;;;;;;5120159;28;20109;-78
2022/10/04 03:26:35;;;;;;;14.63;6.68;;;13.80;99.90;;;;;;5119021;28;20435;-78
2022/10/04 03:29:04;;;;;;;12.93;6.68;;;13.90;99.90;;;;;;5118712;28;20031;-79
2022/10/04 03:31:32;;;;;;;14.40;6.95;;;13.90;99.90;;;;;;5120016;28;20031;-78
2022/10/04 03:33:58;;;;;;;13.60;6.25;;;13.80;99.90;;;;;;5119939;28;20040;-78
2022/10/04 03:36:26;;;;;;;18.15;6.88;;;13.80;99.90;;;;;;5118539;28;20036;-78
2022/10/04 03:38:55;;;;;;;14.07;6.40;;;13.80;99.90;;;;;;5119431;28;20039;-78
2022/10/04 03:41:25;;;;;;;14.77;6.40;;;13.80;99.90;;;;;;5135714;27;20105;-78
2022/10/04 03:43:53;;;;;;;13.10;5.13;;;13.80;99.90;;;;;;5119764;28;20028;-78
2022/10/04 03:46:22;;;;;;;11.85;5.93;;;13.80;99.90;;;;;;5119714;28;20031;-78
2022/10/04 03:48:50;;;;;;;18.17;6.13;;;13.70;99.90;;;;;;5119654;28;20031;-78
2022/10/04 03:51:22;;;;;;;13.40;6.47;;;13.80;99.90;;;;;;5119624;28;20031;-78
2022/10/04 03:53:52;;;;;;;20.23;7.65;;;13.70;99.90;;;;;;5118549;28;20043;-78
2022/10/04 03:56:27;;;;;;;20.05;7.22;;;13.70;99.90;;;;;;5119520;28;20035;-78
2022/10/04 03:58:54;;;;;;;12.52;6.70;;;13.70;99.90;;;;;;5119143;28;20031;-78
2022/10/04 04:01:38;;;;;;;14.48;6.22;;;13.70;99.90;;;;;;5135035;27;20312;-78
2022/10/04 04:04:42;;;;;;;20.10;8.25;;;13.70;99.90;;;;;;5118043;28;20031;-78
2022/10/04 04:07:18;;;;;;;17.98;6.72;;;13.70;99.90;;;;;;5117980;28;20035;-78
2022/10/04 04:10:00;;;;;;;13.73;6.45;;;13.70;99.90;;;;;;5118309;27;20032;-78
2022/10/04 04:12:38;;;;;;;15.48;8.48;;;13.70;99.90;;;;;;5148252;27;20447;-81
2022/10/04 04:15:10;;;;;;;14.18;7.90;;;13.70;99.90;;;;;;5118793;28;20031;-78
2022/10/04 04:17:40;;;;;;;16.10;7.75;;;13.70;99.90;;;;;;5152423;27;20031;-78
2022/10/04 04:20:21;;;;;;;22.10;8.65;;;13.60;99.90;;;;;;5118985;28;20115;-78
2022/10/04 04:23:10;;;;;;;11.13;7.30;;;13.60;99.90;;;;;;5152075;27;20100;-78
2022/10/04 04:25:38;;;;;;;14.05;7.10;;;13.60;99.90;;;;;;5134930;27;20047;-78
2022/10/04 04:28:30;;;;;;;12.25;7.13;;;13.50;99.90;;;;;;5134699;27;20027;-78
2022/10/04 04:31:06;;;;;;;14.57;7.57;;;13.50;99.90;;;;;;5118817;28;20063;-78
2022/10/04 04:33:43;;;;;;;16.70;8.23;;;13.50;99.90;;;;;;5118834;28;20037;-77
2022/10/04 04:36:15;;;;;;;16.88;7.55;;;13.50;99.90;;;;;;5152004;27;20100;-78
2022/10/04 04:41:30;;;;;;;18.33;9.02;;;13.50;99.90;;;;;;5131551;27;20054;-78
2022/10/04 04:43:57;;;;;;;19.58;9.55;;;13.50;99.90;;;;;;5118563;28;20316;-78
2022/10/04 04:46:23;;;;;;;14.85;7.95;;;13.50;99.90;;;;;;5118153;28;20413;-78
2022/10/04 04:49:04;;;;;;;15.00;7.60;;;13.50;99.90;;;;;;5118430;28;20107;-78
2022/10/04 04:51:31;;;;;;;22.58;10.73;;;13.50;99.90;;;;;;5151560;27;20031;-78
2022/10/04 04:54:01;;;;;;;18.17;8.68;;;13.50;99.90;;;;;;5118320;28;20042;-78
2022/10/04 04:56:29;;;;;;;14.20;7.72;;;13.50;99.90;;;;;;5118002;27;20479;-77
2022/10/04 04:58:58;;;;;;;16.73;9.00;;;13.50;99.90;;;;;;5134071;27;20039;-79
2022/10/04 05:01:35;;;;;;;21.10;11.13;;;13.50;99.90;;;;;;5150897;27;20075;-78
2022/10/04 05:04:11;;;;;;;22.27;9.55;;;13.40;99.90;;;;;;5116543;28;20047;-78
2022/10/04 05:06:42;;;;;;;15.53;9.30;;;13.40;99.90;;;;;;5133775;27;20043;-78
2022/10/04 05:09:40;;;;;;;18.52;10.10;;;13.40;99.90;;;;;;5150527;27;20084;-78
2022/10/04 05:12:17;;;;;;;18.10;9.50;;;13.40;99.90;;;;;;5128203;27;20487;-78
2022/10/04 05:14:51;;;;;;;21.20;10.07;;;13.40;99.90;;;;;;5117748;28;20126;-78
2022/10/04 05:17:26;;;;;;;19.58;10.02;;;13.40;99.90;;;;;;5117859;28;20047;-78
2022/10/04 05:19:56;;;;;;;17.80;10.05;;;13.50;99.90;;;;;;5116784;28;20088;-78
2022/10/04 05:22:24;;;;;;;15.20;9.68;;;13.40;99.90;;;;;;5150384;27;20047;-78
2022/10/04 05:25:09;;;;;;;19.48;9.50;;;13.40;99.90;;;;;;5117370;28;20239;-78
2022/10/04 05:27:41;;;;;;;9.85;8.00;;;13.30;99.90;;;;;;5117390;28;20032;-78
2022/10/04 05:30:32;;;;;;;14.98;9.25;;;13.30;99.90;;;;;;5150732;27;20387;-78
2022/10/04 05:33:00;;;;;;;17.40;9.25;;;13.20;99.90;;;;;;5150781;27;20055;-78
2022/10/04 05:35:27;;;;;;;17.23;9.10;;;13.20;99.90;;;;;;5151346;27;20040;-78
2022/10/04 05:38:13;;;;;;;18.25;9.38;;;13.10;99.90;;;;;;5116493;28;20448;-78
2022/10/04 05:40:56;;;;;;;17.38;8.82;;;13.20;99.90;;;;;;5116613;28;20325;-78
2022/10/04 05:43:43;;;;;;;16.80;9.73;;;13.10;99.90;;;;;;5116506;28;20097;-77
2022/10/04 05:46:33;;;;;;;21.52;9.80;;;13.10;99.90;;;;;;5116149;28;20043;-78
2022/10/04 05:49:19;;;;;;;24.13;12.80;;;13.00;99.90;;;;;;5117151;28;20036;-78
2022/10/04 05:52:13;;;;;;;17.30;10.87;;;13.10;99.90;;;;;;5117170;28;20035;-77
2022/10/04 05:54:40;;;;;;;19.63;9.82;;;13.10;99.90;;;;;;5116373;28;20172;-78
2022/10/04 05:57:15;;;;;;;17.83;10.30;;;13.10;99.90;;;;;;5117649;28;20054;-77
2022/10/04 06:00:16;;;;;;;15.25;9.55;;;13.10;99.90;;;;;;5133386;28;20384;-78
2022/10/04 06:03:15;;;;;;;19.88;10.38;;;13.10;99.90;;;;;;5116882;28;20079;-78
2022/10/04 06:05:50;;;;;;;17.60;9.95;;;13.00;99.90;;;;;;5116124;28;20055;-78
2022/10/04 06:08:57;;;;;;;16.70;9.27;;;13.00;99.90;;;;;;5150850;27;20048;-77
2022/10/04 06:11:54;;;;;;;17.50;8.93;;;12.90;99.90;;;;;;5082281;28;20048;-78
2022/10/04 06:14:40;;;;;;;16.83;9.70;;;12.80;99.90;;;;;;5115800;28;20050;-78
2022/10/04 06:17:40;;;;;;;21.87;12.00;;;12.80;99.90;;;;;;5095377;28;20119;-78
2022/10/04 06:20:39;;;;;;;22.50;10.38;;;12.80;99.90;;;;;;5116085;28;20442;-78
2022/10/04 06:23:13;;;;;;;18.20;9.93;;;12.80;99.90;;;;;;5113543;28;20389;-77
2022/10/04 06:25:52;;;;;;;18.13;10.25;;;12.90;99.90;;;;;;5117085;28;20099;-78
2022/10/04 06:28:37;;;;;;;23.20;11.82;;;12.90;99.90;;;;;;5116748;28;20071;-78
2022/10/04 06:31:06;;;;;;;28.38;12.57;;;12.90;99.90;;;;;;5117045;28;20044;-78
2022/10/04 06:33:47;;;;;;;24.60;11.15;;;12.90;99.90;;;;;;5132774;28;20051;-78
2022/10/04 06:36:33;;;;;;;23.67;11.27;;;13.00;99.90;;;;;;5120768;28;20040;-78
2022/10/04 06:39:28;;;;;;;21.52;11.52;;;13.00;99.90;;;;;;5118949;28;20052;-78
2022/10/04 06:42:17;;;;;;;25.58;12.27;;;13.00;99.90;;;;;;5100226;28;20047;-78
2022/10/04 06:45:04;;;;;;;22.80;12.13;;;13.00;99.90;;;;;;5114056;28;20043;-77
2022/10/04 06:47:49;;;;;;;21.02;12.45;;;13.00;99.90;;;;;;5119464;28;20114;-77
2022/10/04 06:50:32;;;;;;;28.13;12.52;;;13.10;99.90;;;;;;5154134;27;20322;-78
2022/10/04 06:53:20;;;;;;;27.17;14.40;;;13.10;99.90;;;;;;5119664;28;20054;-77
2022/10/04 06:56:01;;;;;;;27.52;13.48;;;13.10;99.90;;;;;;5120210;28;20039;-77
2022/10/04 06:58:28;;;;;;;24.35;13.18;;;13.10;99.90;;;;;;5154070;27;20051;-77
2022/10/04 07:01:27;;;;;;;20.98;12.02;;;13.30;99.90;;;;;;5153526;27;20043;-78
2022/10/04 07:03:53;;;;;;;20.73;11.80;;;13.40;99.90;;;;;;5120474;28;20329;-78
2022/10/04 07:07:22;;;;;;;26.00;13.07;;;13.40;99.90;;;;;;5136447;27;20039;-78
2022/10/04 07:09:43;;;;;;;23.15;12.10;;;13.40;99.90;;;;;;5118543;28;20039;-78
2022/10/04 07:12:15;;;;;;;18.48;11.18;;;13.50;99.90;;;;;;5118897;28;20122;-78
2022/10/04 07:15:03;;;;;;;28.38;15.18;;;13.70;99.90;;;;;;5152761;27;20062;-77
2022/10/04 07:17:37;;;;;;;25.67;13.20;;;13.70;99.90;;;;;;5119302;28;20324;-72
2022/10/04 07:20:05;;;;;;;25.20;12.65;;;13.70;99.90;;;;;;5120205;28;20066;-73
2022/10/04 07:22:44;;;;;;;28.92;13.93;;;13.80;99.90;;;;;;5120021;28;20075;-74
2022/10/04 07:25:20;;;;;;;23.40;12.57;;;13.80;99.90;;;;;;5120117;28;20032;-71
2022/10/04 07:31:02;;;;;;;26.55;12.68;;;13.60;99.90;;;;;;5119626;28;20082;-72
2022/10/04 07:33:35;;;;;;;26.75;13.60;;;13.50;99.90;;;;;;5119992;28;20040;-71
2022/10/04 07:36:30;;;;;;;23.00;14.45;;;13.60;99.90;;;;;;5119876;28;20046;-74
2022/10/04 07:39:06;;;;;;;27.35;15.02;;;13.80;99.90;;;;;;5120561;27;20043;-71
2022/10/04 07:41:34;;;;;;;;;;;13.80;99.90;;;;;;5121062;27;20048;-73
2022/10/04 07:44:14;;;;;;;32.38;15.18;;;13.90;99.90;;;;;;5118649;28;20232;-70
2022/10/04 07:46:47;;;;;;;26.88;13.98;;;14.10;99.90;;;;;;5118925;28;20076;-72
2022/10/04 07:49:21;;;;;;;19.95;13.38;;;14.20;99.90;;;;;;5119561;28;20036;-71
2022/10/04 07:52:01;;;;;;;25.65;13.77;;;14.30;99.90;;;;;;5119548;28;20040;-71
2022/10/04 07:54:39;;;;;;;24.05;12.95;;;14.40;99.90;;;;;;5119589;28;20435;-71
2022/10/04 07:57:34;;;;;;;22.10;12.95;;;14.60;99.90;;;;;;5118493;28;20051;-71
2022/10/04 08:00:10;;;;;;;21.80;12.50;;;14.50;99.90;;;;;;5102265;28;20052;-71
2022/10/04 08:02:45;;;;;;;30.15;14.65;;;14.40;99.90;;;;;;5119054;28;20039;-71
2022/10/04 08:05:30;;;;;;;26.58;13.65;;;14.50;99.90;;;;;;5119310;28;20039;-71
2022/10/04 08:08:10;;;;;;;22.05;12.73;;;14.60;99.90;;;;;;5119163;28;20089;-72
2022/10/04 08:10:58;;;;;;;28.75;13.95;;;14.60;99.90;;;;;;5118798;28;20031;-71
2022/10/04 08:13:38;;;;;;;29.40;14.20;;;14.60;99.90;;;;;;5119075;28;20092;-71
2022/10/04 08:16:29;;;;;;;19.00;13.43;;;14.50;99.90;;;;;;5119101;28;20028;-71
2022/10/04 08:19:16;;;;;;;21.38;13.32;;;14.50;99.90;;;;;;5119046;28;20035;-71
2022/10/04 08:21:59;;;;;;;;;;;14.50;99.90;;;;;;5119181;27;20123;-71
2022/10/04 08:24:41;;;;;;;29.92;14.15;;;14.50;99.90;;;;;;5118959;28;19919;-72
2022/10/04 08:27:33;;;;;;;22.67;13.77;;;14.40;99.90;;;;;;5118942;28;20126;-71
2022/10/04 08:30:14;;;;;;;27.30;14.68;;;14.40;99.90;;;;;;5118394;28;20040;-72
2022/10/04 08:33:19;;;;;;;23.05;14.18;;;14.40;99.90;;;;;;5118468;28;20046;-72
2022/10/04 08:36:01;;;;;;;27.75;14.05;;;14.70;99.90;;;;;;5107166;28;20452;-72
2022/10/04 08:38:45;;;;;;;22.20;14.05;;;14.60;99.90;;;;;;5118688;28;20126;-71
2022/10/04 08:41:45;;;;;;;24.38;13.93;;;14.60;99.90;;;;;;5117660;28;20060;-71
2022/10/04 08:44:16;;;;;;;21.95;12.38;;;14.70;99.90;;;;;;5118458;28;20044;-71
2022/10/04 08:47:08;;;;;;;21.20;11.70;;;14.70;99.90;;;;;;5118445;28;20093;-71
2022/10/04 08:49:52;;;;;;;19.52;11.48;;;14.80;99.90;;;;;;5118097;28;20420;-72
2022/10/04 08:52:50;;;;;;;20.52;11.43;;;14.90;99.90;;;;;;5118380;27;20043;-71
2022/10/04 08:55:53;;;;;;;22.95;11.05;;;15.00;99.90;;;;;;5094357;28;20126;-71
2022/10/04 08:58:35;;;;;;;20.48;10.57;;;15.10;99.90;;;;;;5117249;28;20043;-71
2022/10/04 09:01:31;;;;;;;22.75;10.70;;;15.10;99.90;;;;;;5118189;28;20043;-71
2022/10/04 09:04:19;;;;;;;18.52;10.23;;;15.30;99.90;;;;;;5115487;27;20047;-68
2022/10/04 09:07:22;;;;;;;24.30;10.35;;;15.50;99.90;;;;;;5117815;28;20446;-70
2022/10/04 09:10:19;;;;;;;17.40;8.35;;;15.60;99.90;;;;;;5117633;28;20046;-79
2022/10/04 09:13:21;;;;;;;17.80;8.57;;;15.50;99.90;;;;;;5151038;27;20425;-70
2022/10/04 09:16:04;;;;;;;15.52;8.05;;;15.40;99.90;;;;;;5119008;27;20327;-71
2022/10/04 09:19:08;;;;;;;13.95;7.28;;;15.60;99.90;;;;;;5117698;27;20463;-70
2022/10/04 09:21:40;;;;;;;17.70;8.48;;;15.90;99.90;;;;;;5117673;27;20444;-69
2022/10/04 09:24:09;;;;;;;18.13;8.77;;;16.10;99.90;;;;;;5117266;28;20503;-69
2022/10/04 09:26:50;;;;;;;14.98;7.78;;;16.20;99.90;;;;;;5117428;28;20347;-70
2022/10/04 09:29:25;;;;;;;17.95;7.38;;;16.20;99.90;;;;;;5117629;27;20066;-69
2022/10/04 09:32:15;;;;;;;14.82;7.68;;;16.20;99.90;;;;;;5116178;28;20043;-70
2022/10/04 09:35:06;;;;;;;14.05;6.63;;;16.30;99.80;;;;;;5117371;28;20126;-69
2022/10/04 09:37:55;;;;;;;21.58;8.95;;;16.20;99.80;;;;;;5118061;27;20318;-69
2022/10/04 09:40:43;;;;;;;16.33;6.97;;;16.30;99.70;;;;;;5116585;28;20066;-71
2022/10/04 09:43:45;;;;;;;14.85;6.78;;;16.30;99.70;;;;;;5117288;28;20051;-69
2022/10/04 09:46:23;;;;;;;11.70;7.30;;;16.50;99.90;;;;;;5116753;28;20052;-69
2022/10/04 09:49:21;;;;;;;12.65;6.88;;;16.70;99.40;;;;;;5117002;28;20429;-70
2022/10/04 09:52:07;;;;;;;14.98;6.88;;;16.60;99.30;;;;;;5116958;28;20493;-71
2022/10/04 09:54:50;;;;;;;12.45;6.82;;;16.70;99.30;;;;;;5117725;28;20088;-72
2022/10/04 09:57:16;;;;;;;12.80;6.68;;;17.00;99.20;;;;;;5116999;28;20356;-70
2022/10/04 09:59:57;;;;;;;13.13;6.50;;;17.20;99.10;;;;;;5116766;28;20039;-71
2022/10/04 10:02:27;;;;;;;13.23;5.28;;;17.20;98.90;;;;;;5116909;28;20050;-90
2022/10/04 10:05:27;;;;;;;12.55;6.15;;;17.30;98.80;;;;;;5116411;28;20079;-86
2022/10/04 10:08:10;;;;;;;14.15;5.22;;;17.20;98.60;;;;;;5117988;28;20044;-89
2022/10/04 10:14:11;;;;;;;10.18;4.80;;;17.30;98.80;;;;;;5129793;27;20050;-87
2022/10/04 10:16:58;;;;;;;14.20;5.38;;;17.40;98.90;;;;;;5146003;27;20035;-88
2022/10/04 10:19:43;;;;;;;10.90;5.38;;;17.50;98.80;;;;;;5164575;27;20389;-84
2022/10/04 10:22:37;;;;;;;10.85;4.43;;;17.50;98.50;;;;;;5137901;27;20043;-83
2022/10/04 10:25:17;;;;;;;12.35;3.90;;;17.50;98.50;;;;;;5140385;27;20039;-84
2022/10/04 10:28:10;;;;;;;10.10;4.38;;;17.40;98.20;;;;;;5123687;27;20316;-83
2022/10/04 10:30:39;;;;;;;10.00;3.95;;;17.30;98.00;;;;;;5140425;27;20039;-83
2022/10/04 10:33:11;;;;;;;11.57;3.88;;;17.50;98.50;;;;;;5140582;27;20381;-83
2022/10/04 10:36:21;;;;;;;6.30;4.07;;;17.80;98.80;;;;;;5140555;27;20318;-80
2022/10/04 10:39:10;;;;;;;9.52;4.18;;;18.30;98.80;;;;;;5138014;27;20051;-80
2022/10/04 10:42:02;;;;;;;11.65;3.92;;;18.50;98.30;;;;;;5140958;27;20059;-70
2022/10/04 10:44:46;;;;;;;8.20;4.07;;;19.20;98.10;;;;;;5113496;27;20476;-70
2022/10/04 10:47:36;;;;;;;10.27;3.92;;;19.50;97.70;;;;;;5141401;27;20039;-70
2022/10/04 10:50:14;;;;;;;13.20;4.13;;;19.90;97.70;;;;;;5141004;27;20042;-70
2022/10/04 10:53:03;;;;;;;10.13;4.10;;;20.10;97.10;;;;;;5140861;27;20050;-70
2022/10/04 10:55:28;;;;;;;13.93;4.93;;;20.30;96.80;;;;;;5140254;27;20336;-87
2022/10/04 10:58:12;;;;;;;9.77;3.92;;;20.50;97.00;;;;;;5122962;27;20039;-87
2022/10/04 11:01:15;;;;;;;10.77;4.55;;;20.40;97.20;;;;;;5140390;27;20046;-89
2022/10/04 11:04:01;;;;;;;10.60;4.18;;;20.00;97.10;;;;;;5141403;27;20051;-89
2022/10/04 11:07:01;;;;;;;8.90;3.70;;;19.60;96.60;;;;;;5140473;27;20459;-88
2022/10/04 11:09:42;;;;;;;9.52;3.83;;;19.40;96.90;;;;;;5140007;27;20321;-87
2022/10/04 11:12:30;;;;;;;10.27;4.18;;;19.40;96.70;;;;;;5139928;27;20042;-80
2022/10/04 11:15:35;;;;;;;9.85;4.40;;;19.40;97.20;;;;;;5119957;27;20043;-79
2022/10/04 11:18:06;;;;;;;9.98;3.70;;;19.40;97.40;;;;;;5133765;27;20313;-80
2022/10/04 11:20:52;;;;;;;10.45;4.22;;;19.80;96.80;;;;;;5138511;27;20039;-70
2022/10/04 11:23:30;;;;;;;;;;;20.10;97.20;;;;;;5120653;28;20036;-72
2022/10/04 11:26:07;;;;;;;8.18;3.80;;;20.60;96.90;;;;;;5134840;27;19919;-69
2022/10/04 11:28:56;;;;;;;10.77;3.97;;;20.60;96.10;;;;;;5137233;27;20042;-72
2022/10/04 11:32:00;;;;;;;8.20;3.42;;;20.70;96.30;;;;;;5136585;27;20043;-73
2022/10/04 11:34:45;;;;;;;11.10;4.00;;;21.00;96.00;;;;;;5138962;27;20043;-72
2022/10/04 11:37:45;;;;;;;12.25;4.35;;;21.10;95.70;;;;;;5140085;27;20114;-72
2022/10/04 11:40:39;;;;;;;5.88;3.25;;;21.40;95.90;;;;;;5139714;27;20057;-73
2022/10/04 11:43:56;;;;;;;8.40;3.35;;;22.00;96.20;;;;;;5140260;27;20044;-68
2022/10/04 11:46:40;;;;;;;10.68;3.78;;;21.80;95.30;;;;;;5142255;27;20039;-70
2022/10/04 11:49:20;;;;;;;6.93;3.35;;;21.40;95.70;;;;;;5140159;27;20111;-70
2022/10/04 11:52:16;;;;;;;9.23;3.03;;;21.40;95.80;;;;;;5140172;27;20039;-70
2022/10/04 11:55:07;;;;;;;8.38;3.20;;;21.50;95.60;;;;;;5139071;27;20324;-71
2022/10/04 11:58:18;;;;;;;6.65;2.90;;;21.20;95.20;;;;;;5117635;27;20074;-72
2022/10/04 12:01:02;;;;;;;9.73;3.30;;;21.60;95.80;;;;;;5090596;28;20041;-71
2022/10/04 12:03:58;;;;;;;7.72;3.42;;;22.10;95.50;;;;;;5118244;28;20139;-71
2022/10/04 12:06:34;;;;;;;9.63;3.63;;;22.30;95.40;;;;;;5133534;27;20317;-77
2022/10/04 12:09:24;;;;;;;5.97;2.95;;;22.60;94.90;;;;;;5136286;27;20054;-75
2022/10/04 12:15:37;;;;;;;9.60;2.70;;;22.60;95.00;;;;;;5139289;27;20382;-73
2022/10/04 12:18:14;;;;;;;11.40;3.72;;;22.70;95.10;;;;;;5138514;27;20058;-74
2022/10/04 12:21:05;;;;;;;8.60;3.38;;;22.50;94.50;;;;;;5139561;27;20073;-72
2022/10/04 12:23:46;;;;;;;8.32;3.38;;;22.40;94.60;;;;;;5139516;27;20123;-74
2022/10/04 12:26:23;;;;;;;8.40;3.50;;;22.60;94.70;;;;;;5139696;27;20389;-71
2022/10/04 12:29:03;;;;;;;9.57;3.45;;;22.80;94.90;;;;;;5139441;27;20096;-71
2022/10/04 12:32:13;;;;;;;8.52;3.55;;;23.00;94.50;;;;;;5139316;27;20039;-73
2022/10/04 12:34:56;;;;;;;7.72;3.42;;;23.50;94.00;;;;;;5100568;27;20323;-75
2022/10/04 12:37:52;;;;;;;10.43;3.60;;;23.60;93.60;;;;;;5139266;27;20037;-73
2022/10/04 12:40:32;;;;;;;8.63;3.58;;;23.70;94.00;;;;;;5138532;27;20055;-74
2022/10/04 12:43:33;;;;;;;10.23;3.55;;;23.20;93.50;;;;;;5139081;27;20043;-73
2022/10/04 12:45:59;;;;;;;7.40;3.60;;;23.30;94.10;;;;;;5138019;27;20049;-74
2022/10/04 12:48:31;;;;;;;11.13;3.85;;;23.00;93.90;;;;;;5139020;27;20321;-74
2022/10/04 12:51:04;;;;;;;7.18;3.80;;;23.00;94.20;;;;;;5139013;27;20126;-74
2022/10/04 12:53:40;;;;;;;8.68;4.10;;;22.90;94.00;;;;;;5138869;27;20031;-73
2022/10/04 12:56:36;;;;;;;11.30;4.47;;;22.70;94.40;;;;;;5138861;27;20095;-74
2022/10/04 12:59:20;;;;;;;9.07;3.60;;;22.60;93.70;;;;;;5138831;27;20043;-73
2022/10/04 13:01:54;;;;;;;11.05;4.68;;;22.90;94.30;;;;;;5138431;27;20488;-74
2022/10/04 13:04:44;;;;;;;10.98;4.40;;;23.10;93.90;;;;;;5138751;27;20114;-74
2022/10/04 13:07:41;;;;;;;11.15;4.13;;;23.90;93.50;;;;;;5138719;27;20055;-73
2022/10/04 13:10:38;;;;;;;10.88;4.00;;;24.60;93.80;;;;;;5138255;27;20031;-74
2022/10/04 13:13:28;;;;;;;11.30;4.70;;;24.40;93.70;;;;;;5138575;27;20086;-74
2022/10/04 13:16:21;;;;;;;9.57;4.20;;;24.10;93.30;;;;;;5130098;27;20051;-73
2022/10/04 13:19:04;;;;;;;8.60;4.70;;;23.60;93.80;;;;;;5138475;27;20096;-71
2022/10/04 13:22:14;;;;;;;8.95;3.90;;;22.70;94.30;;;;;;5138401;27;20049;-73
2022/10/04 13:24:54;;;;;;;9.00;4.50;;;22.80;94.20;;;;;;5074952;28;20481;-73
2022/10/04 13:27:27;;;;;;;9.35;4.75;;;22.60;94.40;;;;;;5135188;27;20091;-74
2022/10/04 13:30:15;;;;;;;8.88;5.47;;;22.60;94.50;;;;;;5137956;27;20154;-73
2022/10/04 13:33:00;;;;;;;10.05;5.63;;;22.30;94.40;;;;;;5138201;27;20035;-72
2022/10/04 13:35:47;;;;;;;11.07;5.15;;;22.00;94.30;;;;;;5137224;27;20054;-72
2022/10/04 13:38:52;;;;;;;9.60;4.65;;;21.70;94.50;;;;;;5138085;27;20046;-72
2022/10/04 13:41:36;;;;;;;9.23;4.78;;;21.30;94.90;;;;;;5126730;27;20050;-72
2022/10/04 13:44:32;;;;;;;10.23;4.72;;;21.10;94.80;;;;;;5116642;28;20059;-72
2022/10/04 13:47:10;;;;;;;12.43;4.88;;;21.10;95.10;;;;;;5136372;27;20031;-72
2022/10/04 13:50:29;;;;;;;12.63;5.00;;;21.00;95.00;;;;;;5137521;27;20048;-71
2022/10/04 13:56:35;;;;;;;17.60;4.95;;;20.50;95.40;;;;;;5136697;27;20042;-72
2022/10/04 13:59:26;;;;;;;10.38;4.57;;;20.50;95.60;;;;;;5117781;28;20475;-71
2022/10/04 14:02:12;;;;;;;11.80;4.82;;;20.40;95.50;;;;;;5116981;28;20042;-73
2022/10/04 14:05:14;;;;;;;12.23;4.75;;;20.50;95.60;;;;;;5117404;28;20429;-73
2022/10/04 14:08:08;;;;;;;11.23;4.32;;;20.50;95.70;;;;;;5117050;28;20333;-73